sensor_id;sensor_type;location;lat;lon;timestamp;P1;durP1;ratioP1;P2;durP2;ratioP2
39982;SDS011;25670;44.782;10.356;2023-10-08T00:02:05;81.50;;;46.22;;
39982;SDS011;25670;44.782;10.356;2023-10-08T00:04:34;81.55;;;46.72;;
39982;SDS011;25670;44.782;10.356;2023-10-08T00:09:36;77.72;;;44.55;;
39982;SDS011;25670;44.782;10.356;2023-10-08T00:12:03;76.82;;;45.20;;
39982;SDS011;25670;44.782;10.356;2023-10-08T00:14:30;77.60;;;46.22;;
39982;SDS011;25670;44.782;10.356;2023-10-08T00:16:58;77.35;;;46.03;;
39982;SDS011;25670;44.782;10.356;2023-10-08T00:19:25;81.45;;;47.38;;
39982;SDS011;25670;44.782;10.356;2023-10-08T00:21:52;78.03;;;45.08;;
39982;SDS011;25670;44.782;10.356;2023-10-08T00:24:19;84.15;;;48.58;;
39982;SDS011;25670;44.782;10.356;2023-10-08T00:26:52;79.55;;;46.10;;
39982;SDS011;25670;44.782;10.356;2023-10-08T00:29:20;77.15;;;43.30;;
39982;SDS011;25670;44.782;10.356;2023-10-08T00:31:50;80.82;;;44.25;;
39982;SDS011;25670;44.782;10.356;2023-10-08T00:34:16;75.18;;;44.45;;
39982;SDS011;25670;44.782;10.356;2023-10-08T00:36:48;70.40;;;41.65;;
39982;SDS011;25670;44.782;10.356;2023-10-08T00:39:14;70.05;;;42.45;;
39982;SDS011;25670;44.782;10.356;2023-10-08T00:41:52;75.22;;;42.50;;
39982;SDS011;25670;44.782;10.356;2023-10-08T00:44:24;85.00;;;46.80;;
39982;SDS011;25670;44.782;10.356;2023-10-08T00:46:58;77.95;;;44.75;;
39982;SDS011;25670;44.782;10.356;2023-10-08T00:52:13;75.03;;;42.67;;
39982;SDS011;25670;44.782;10.356;2023-10-08T00:57:06;73.28;;;43.60;;
39982;SDS011;25670;44.782;10.356;2023-10-08T00:59:33;72.00;;;41.72;;
39982;SDS011;25670;44.782;10.356;2023-10-08T01:02:10;75.45;;;45.28;;
39982;SDS011;25670;44.782;10.356;2023-10-08T01:04:41;74.80;;;43.60;;
39982;SDS011;25670;44.782;10.356;2023-10-08T01:07:10;77.53;;;43.30;;
39982;SDS011;25670;44.782;10.356;2023-10-08T01:09:39;73.32;;;42.22;;
39982;SDS011;25670;44.782;10.356;2023-10-08T01:14:43;75.55;;;45.00;;
39982;SDS011;25670;44.782;10.356;2023-10-08T01:17:09;75.25;;;44.55;;
39982;SDS011;25670;44.782;10.356;2023-10-08T01:22:20;75.63;;;41.92;;
39982;SDS011;25670;44.782;10.356;2023-10-08T01:24:48;71.03;;;42.72;;
39982;SDS011;25670;44.782;10.356;2023-10-08T01:27:15;72.88;;;41.83;;
39982;SDS011;25670;44.782;10.356;2023-10-08T01:29:47;68.13;;;41.08;;
39982;SDS011;25670;44.782;10.356;2023-10-08T01:32:18;67.72;;;40.83;;
39982;SDS011;25670;44.782;10.356;2023-10-08T01:34:45;67.93;;;39.33;;
39982;SDS011;25670;44.782;10.356;2023-10-08T01:37:15;66.07;;;39.50;;
39982;SDS011;25670;44.782;10.356;2023-10-08T01:39:43;70.70;;;39.85;;
39982;SDS011;25670;44.782;10.356;2023-10-08T01:42:15;70.03;;;38.35;;
39982;SDS011;25670;44.782;10.356;2023-10-08T01:44:47;63.92;;;39.28;;
39982;SDS011;25670;44.782;10.356;2023-10-08T01:47:14;67.78;;;40.20;;
39982;SDS011;25670;44.782;10.356;2023-10-08T01:49:44;64.95;;;39.78;;
39982;SDS011;25670;44.782;10.356;2023-10-08T01:52:12;63.35;;;38.38;;
39982;SDS011;25670;44.782;10.356;2023-10-08T01:54:47;62.13;;;38.75;;
39982;SDS011;25670;44.782;10.356;2023-10-08T01:57:15;67.97;;;40.40;;
39982;SDS011;25670;44.782;10.356;2023-10-08T01:59:42;63.10;;;38.50;;
39982;SDS011;25670;44.782;10.356;2023-10-08T02:02:09;61.72;;;38.83;;
39982;SDS011;25670;44.782;10.356;2023-10-08T02:04:36;66.97;;;38.95;;
39982;SDS011;25670;44.782;10.356;2023-10-08T02:07:02;64.38;;;39.30;;
39982;SDS011;25670;44.782;10.356;2023-10-08T02:09:41;71.43;;;41.13;;
39982;SDS011;25670;44.782;10.356;2023-10-08T02:12:08;66.80;;;40.47;;
39982;SDS011;25670;44.782;10.356;2023-10-08T02:14:35;64.75;;;39.88;;
39982;SDS011;25670;44.782;10.356;2023-10-08T02:17:01;78.25;;;41.97;;
39982;SDS011;25670;44.782;10.356;2023-10-08T02:19:32;61.53;;;40.03;;
39982;SDS011;25670;44.782;10.356;2023-10-08T02:22:00;78.50;;;40.63;;
39982;SDS011;25670;44.782;10.356;2023-10-08T02:24:28;68.43;;;40.97;;
39982;SDS011;25670;44.782;10.356;2023-10-08T02:26:55;67.50;;;39.72;;
39982;SDS011;25670;44.782;10.356;2023-10-08T02:29:28;64.30;;;39.72;;
39982;SDS011;25670;44.782;10.356;2023-10-08T02:31:58;59.63;;;36.90;;
39982;SDS011;25670;44.782;10.356;2023-10-08T02:34:25;56.95;;;38.65;;
39982;SDS011;25670;44.782;10.356;2023-10-08T02:36:52;62.60;;;39.58;;
39982;SDS011;25670;44.782;10.356;2023-10-08T02:39:18;61.83;;;38.35;;
39982;SDS011;25670;44.782;10.356;2023-10-08T02:41:48;62.40;;;37.42;;
39982;SDS011;25670;44.782;10.356;2023-10-08T02:44:15;59.53;;;38.05;;
39982;SDS011;25670;44.782;10.356;2023-10-08T02:46:43;55.95;;;35.55;;
39982;SDS011;25670;44.782;10.356;2023-10-08T02:49:13;58.10;;;37.55;;
39982;SDS011;25670;44.782;10.356;2023-10-08T02:51:45;60.00;;;36.50;;
39982;SDS011;25670;44.782;10.356;2023-10-08T02:54:13;62.13;;;37.53;;
39982;SDS011;25670;44.782;10.356;2023-10-08T02:56:47;60.05;;;37.88;;
39982;SDS011;25670;44.782;10.356;2023-10-08T02:59:18;58.15;;;35.03;;
39982;SDS011;25670;44.782;10.356;2023-10-08T03:01:47;56.55;;;36.65;;
39982;SDS011;25670;44.782;10.356;2023-10-08T03:04:15;60.80;;;35.78;;
39982;SDS011;25670;44.782;10.356;2023-10-08T03:06:47;54.63;;;34.65;;
39982;SDS011;25670;44.782;10.356;2023-10-08T03:09:16;60.03;;;35.92;;
39982;SDS011;25670;44.782;10.356;2023-10-08T03:11:51;53.67;;;34.72;;
39982;SDS011;25670;44.782;10.356;2023-10-08T03:14:19;55.90;;;34.75;;
39982;SDS011;25670;44.782;10.356;2023-10-08T03:16:52;52.15;;;34.03;;
39982;SDS011;25670;44.782;10.356;2023-10-08T03:19:19;59.70;;;34.35;;
39982;SDS011;25670;44.782;10.356;2023-10-08T03:21:48;53.65;;;34.50;;
39982;SDS011;25670;44.782;10.356;2023-10-08T03:24:21;53.38;;;33.22;;
39982;SDS011;25670;44.782;10.356;2023-10-08T03:27:03;59.53;;;34.35;;
39982;SDS011;25670;44.782;10.356;2023-10-08T03:29:41;50.58;;;33.47;;
39982;SDS011;25670;44.782;10.356;2023-10-08T03:32:11;50.25;;;34.22;;
39982;SDS011;25670;44.782;10.356;2023-10-08T03:34:44;57.88;;;34.30;;
39982;SDS011;25670;44.782;10.356;2023-10-08T03:37:20;48.70;;;33.00;;
39982;SDS011;25670;44.782;10.356;2023-10-08T03:39:55;53.72;;;32.50;;
39982;SDS011;25670;44.782;10.356;2023-10-08T03:42:47;44.75;;;32.33;;
39982;SDS011;25670;44.782;10.356;2023-10-08T03:45:15;52.30;;;33.15;;
39982;SDS011;25670;44.782;10.356;2023-10-08T03:47:48;50.40;;;32.22;;
39982;SDS011;25670;44.782;10.356;2023-10-08T03:50:31;49.42;;;31.65;;
39982;SDS011;25670;44.782;10.356;2023-10-08T03:53:06;50.45;;;33.50;;
39982;SDS011;25670;44.782;10.356;2023-10-08T03:55:39;50.97;;;32.20;;
39982;SDS011;25670;44.782;10.356;2023-10-08T03:58:09;50.40;;;31.15;;
39982;SDS011;25670;44.782;10.356;2023-10-08T04:00:42;52.53;;;33.10;;
39982;SDS011;25670;44.782;10.356;2023-10-08T04:03:11;49.20;;;32.17;;
39982;SDS011;25670;44.782;10.356;2023-10-08T04:05:38;47.08;;;32.42;;
39982;SDS011;25670;44.782;10.356;2023-10-08T04:08:29;49.33;;;34.10;;
39982;SDS011;25670;44.782;10.356;2023-10-08T04:11:23;52.38;;;33.08;;
39982;SDS011;25670;44.782;10.356;2023-10-08T04:14:04;48.35;;;32.10;;
39982;SDS011;25670;44.782;10.356;2023-10-08T04:16:31;53.25;;;33.10;;
39982;SDS011;25670;44.782;10.356;2023-10-08T04:19:03;49.13;;;32.97;;
39982;SDS011;25670;44.782;10.356;2023-10-08T04:21:30;51.53;;;33.53;;
39982;SDS011;25670;44.782;10.356;2023-10-08T04:23:59;48.70;;;32.67;;
39982;SDS011;25670;44.782;10.356;2023-10-08T04:26:29;48.97;;;32.25;;
39982;SDS011;25670;44.782;10.356;2023-10-08T04:28:57;48.20;;;32.03;;
39982;SDS011;25670;44.782;10.356;2023-10-08T04:31:27;53.92;;;32.28;;
39982;SDS011;25670;44.782;10.356;2023-10-08T04:34:02;53.63;;;33.90;;
39982;SDS011;25670;44.782;10.356;2023-10-08T04:36:35;57.67;;;32.60;;
39982;SDS011;25670;44.782;10.356;2023-10-08T04:39:04;52.00;;;34.13;;
39982;SDS011;25670;44.782;10.356;2023-10-08T04:41:41;50.50;;;33.08;;
39982;SDS011;25670;44.782;10.356;2023-10-08T04:44:09;51.45;;;32.85;;
39982;SDS011;25670;44.782;10.356;2023-10-08T04:46:42;46.35;;;32.13;;
39982;SDS011;25670;44.782;10.356;2023-10-08T04:49:14;48.50;;;31.98;;
39982;SDS011;25670;44.782;10.356;2023-10-08T04:54:31;54.75;;;34.83;;
39982;SDS011;25670;44.782;10.356;2023-10-08T04:56:58;54.05;;;34.33;;
39982;SDS011;25670;44.782;10.356;2023-10-08T04:59:29;50.50;;;34.55;;
39982;SDS011;25670;44.782;10.356;2023-10-08T05:02:00;54.45;;;34.78;;
39982;SDS011;25670;44.782;10.356;2023-10-08T05:04:50;54.80;;;33.97;;
39982;SDS011;25670;44.782;10.356;2023-10-08T05:07:23;54.47;;;34.47;;
39982;SDS011;25670;44.782;10.356;2023-10-08T05:09:52;48.33;;;33.30;;
39982;SDS011;25670;44.782;10.356;2023-10-08T05:12:34;50.75;;;32.40;;
39982;SDS011;25670;44.782;10.356;2023-10-08T05:15:06;50.13;;;34.13;;
39982;SDS011;25670;44.782;10.356;2023-10-08T05:17:38;45.95;;;32.35;;
39982;SDS011;25670;44.782;10.356;2023-10-08T05:20:17;54.00;;;34.35;;
39982;SDS011;25670;44.782;10.356;2023-10-08T05:23:10;54.15;;;35.45;;
39982;SDS011;25670;44.782;10.356;2023-10-08T05:25:58;55.28;;;34.92;;
39982;SDS011;25670;44.782;10.356;2023-10-08T05:28:41;51.83;;;33.95;;
39982;SDS011;25670;44.782;10.356;2023-10-08T05:31:26;58.58;;;34.55;;
39982;SDS011;25670;44.782;10.356;2023-10-08T05:34:13;58.78;;;34.67;;
39982;SDS011;25670;44.782;10.356;2023-10-08T05:36:58;57.50;;;35.15;;
39982;SDS011;25670;44.782;10.356;2023-10-08T05:39:30;58.55;;;36.67;;
39982;SDS011;25670;44.782;10.356;2023-10-08T05:42:08;58.33;;;38.45;;
39982;SDS011;25670;44.782;10.356;2023-10-08T05:44:58;59.50;;;37.95;;
39982;SDS011;25670;44.782;10.356;2023-10-08T05:47:33;60.03;;;38.38;;
39982;SDS011;25670;44.782;10.356;2023-10-08T05:50:00;56.40;;;37.35;;
39982;SDS011;25670;44.782;10.356;2023-10-08T05:52:45;63.38;;;37.05;;
39982;SDS011;25670;44.782;10.356;2023-10-08T05:55:24;57.08;;;36.03;;
39982;SDS011;25670;44.782;10.356;2023-10-08T05:57:54;58.25;;;34.65;;
39982;SDS011;25670;44.782;10.356;2023-10-08T06:00:46;53.42;;;33.83;;
39982;SDS011;25670;44.782;10.356;2023-10-08T06:03:19;54.95;;;33.53;;
39982;SDS011;25670;44.782;10.356;2023-10-08T06:05:58;58.28;;;35.38;;
39982;SDS011;25670;44.782;10.356;2023-10-08T06:08:42;59.33;;;34.30;;
39982;SDS011;25670;44.782;10.356;2023-10-08T06:11:20;54.75;;;35.22;;
39982;SDS011;25670;44.782;10.356;2023-10-08T06:14:02;50.50;;;33.92;;
39982;SDS011;25670;44.782;10.356;2023-10-08T06:16:44;50.50;;;31.58;;
39982;SDS011;25670;44.782;10.356;2023-10-08T06:19:13;53.33;;;32.67;;
39982;SDS011;25670;44.782;10.356;2023-10-08T06:21:40;51.35;;;30.73;;
39982;SDS011;25670;44.782;10.356;2023-10-08T06:24:08;48.83;;;31.75;;
39982;SDS011;25670;44.782;10.356;2023-10-08T06:26:38;54.28;;;32.97;;
39982;SDS011;25670;44.782;10.356;2023-10-08T06:29:09;47.78;;;31.80;;
39982;SDS011;25670;44.782;10.356;2023-10-08T06:31:45;43.95;;;30.80;;
39982;SDS011;25670;44.782;10.356;2023-10-08T06:34:21;43.78;;;29.42;;
39982;SDS011;25670;44.782;10.356;2023-10-08T06:36:49;51.40;;;32.42;;
39982;SDS011;25670;44.782;10.356;2023-10-08T06:39:20;51.95;;;33.17;;
39982;SDS011;25670;44.782;10.356;2023-10-08T06:44:19;52.08;;;29.35;;
39982;SDS011;25670;44.782;10.356;2023-10-08T06:46:45;43.45;;;29.35;;
39982;SDS011;25670;44.782;10.356;2023-10-08T06:49:11;46.60;;;31.15;;
39982;SDS011;25670;44.782;10.356;2023-10-08T06:51:38;43.80;;;28.42;;
39982;SDS011;25670;44.782;10.356;2023-10-08T06:54:07;40.70;;;27.45;;
39982;SDS011;25670;44.782;10.356;2023-10-08T06:56:36;36.22;;;26.75;;
39982;SDS011;25670;44.782;10.356;2023-10-08T06:59:03;39.50;;;27.27;;
39982;SDS011;25670;44.782;10.356;2023-10-08T07:01:30;34.55;;;25.83;;
39982;SDS011;25670;44.782;10.356;2023-10-08T07:04:05;38.63;;;25.90;;
39982;SDS011;25670;44.782;10.356;2023-10-08T07:06:32;33.50;;;25.50;;
39982;SDS011;25670;44.782;10.356;2023-10-08T07:09:03;34.93;;;25.03;;
39982;SDS011;25670;44.782;10.356;2023-10-08T07:11:30;29.30;;;23.65;;
39982;SDS011;25670;44.782;10.356;2023-10-08T07:14:03;35.53;;;22.48;;
39982;SDS011;25670;44.782;10.356;2023-10-08T07:16:31;39.80;;;26.00;;
39982;SDS011;25670;44.782;10.356;2023-10-08T07:18:58;39.53;;;26.05;;
39982;SDS011;25670;44.782;10.356;2023-10-08T07:21:29;33.55;;;23.02;;
39982;SDS011;25670;44.782;10.356;2023-10-08T07:24:04;27.25;;;21.23;;
39982;SDS011;25670;44.782;10.356;2023-10-08T07:26:35;30.35;;;21.83;;
39982;SDS011;25670;44.782;10.356;2023-10-08T07:29:15;24.63;;;21.15;;
39982;SDS011;25670;44.782;10.356;2023-10-08T07:31:43;24.98;;;19.85;;
39982;SDS011;25670;44.782;10.356;2023-10-08T07:34:19;33.17;;;19.70;;
39982;SDS011;25670;44.782;10.356;2023-10-08T07:36:53;19.15;;;17.17;;
39982;SDS011;25670;44.782;10.356;2023-10-08T07:39:21;30.85;;;19.73;;
39982;SDS011;25670;44.782;10.356;2023-10-08T07:41:57;21.40;;;18.83;;
39982;SDS011;25670;44.782;10.356;2023-10-08T07:44:25;23.92;;;19.08;;
39982;SDS011;25670;44.782;10.356;2023-10-08T07:46:55;26.70;;;20.13;;
39982;SDS011;25670;44.782;10.356;2023-10-08T07:49:22;21.92;;;18.05;;
39982;SDS011;25670;44.782;10.356;2023-10-08T07:51:54;18.42;;;16.13;;
39982;SDS011;25670;44.782;10.356;2023-10-08T07:54:21;19.70;;;17.45;;
39982;SDS011;25670;44.782;10.356;2023-10-08T07:56:53;22.48;;;18.23;;
39982;SDS011;25670;44.782;10.356;2023-10-08T07:59:25;17.98;;;16.20;;
39982;SDS011;25670;44.782;10.356;2023-10-08T08:01:52;20.60;;;18.23;;
39982;SDS011;25670;44.782;10.356;2023-10-08T08:04:19;26.70;;;18.98;;
39982;SDS011;25670;44.782;10.356;2023-10-08T08:06:49;24.05;;;18.77;;
39982;SDS011;25670;44.782;10.356;2023-10-08T08:09:18;25.70;;;19.58;;
39982;SDS011;25670;44.782;10.356;2023-10-08T08:11:49;22.63;;;18.88;;
39982;SDS011;25670;44.782;10.356;2023-10-08T08:14:15;23.90;;;18.65;;
39982;SDS011;25670;44.782;10.356;2023-10-08T08:16:50;27.55;;;19.33;;
39982;SDS011;25670;44.782;10.356;2023-10-08T08:19:17;36.10;;;23.75;;
39982;SDS011;25670;44.782;10.356;2023-10-08T08:21:49;24.02;;;19.58;;
39982;SDS011;25670;44.782;10.356;2023-10-08T08:24:18;25.33;;;19.67;;
39982;SDS011;25670;44.782;10.356;2023-10-08T08:26:55;26.80;;;20.83;;
39982;SDS011;25670;44.782;10.356;2023-10-08T08:29:27;29.65;;;18.98;;
39982;SDS011;25670;44.782;10.356;2023-10-08T08:31:55;23.85;;;19.27;;
39982;SDS011;25670;44.782;10.356;2023-10-08T08:34:23;25.25;;;19.75;;
39982;SDS011;25670;44.782;10.356;2023-10-08T08:36:49;23.55;;;19.95;;
39982;SDS011;25670;44.782;10.356;2023-10-08T08:39:16;26.52;;;20.63;;
39982;SDS011;25670;44.782;10.356;2023-10-08T08:41:56;26.20;;;18.42;;
39982;SDS011;25670;44.782;10.356;2023-10-08T08:44:28;21.35;;;17.95;;
39982;SDS011;25670;44.782;10.356;2023-10-08T08:46:57;26.10;;;19.38;;
39982;SDS011;25670;44.782;10.356;2023-10-08T08:49:33;26.85;;;18.83;;
39982;SDS011;25670;44.782;10.356;2023-10-08T08:52:00;25.30;;;18.65;;
39982;SDS011;25670;44.782;10.356;2023-10-08T08:54:27;24.70;;;19.20;;
39982;SDS011;25670;44.782;10.356;2023-10-08T08:56:56;22.20;;;19.05;;
39982;SDS011;25670;44.782;10.356;2023-10-08T08:59:27;22.60;;;19.58;;
39982;SDS011;25670;44.782;10.356;2023-10-08T09:01:59;23.73;;;18.92;;
39982;SDS011;25670;44.782;10.356;2023-10-08T09:04:29;25.83;;;18.92;;
39982;SDS011;25670;44.782;10.356;2023-10-08T09:06:57;25.80;;;19.42;;
39982;SDS011;25670;44.782;10.356;2023-10-08T09:09:34;25.33;;;18.88;;
39982;SDS011;25670;44.782;10.356;2023-10-08T09:12:05;21.95;;;19.25;;
39982;SDS011;25670;44.782;10.356;2023-10-08T09:14:34;27.27;;;18.50;;
39982;SDS011;25670;44.782;10.356;2023-10-08T09:17:02;23.65;;;18.85;;
39982;SDS011;25670;44.782;10.356;2023-10-08T09:19:37;29.20;;;19.85;;
39982;SDS011;25670;44.782;10.356;2023-10-08T09:22:10;23.73;;;20.17;;
39982;SDS011;25670;44.782;10.356;2023-10-08T09:24:38;24.67;;;18.80;;
39982;SDS011;25670;44.782;10.356;2023-10-08T09:27:06;32.40;;;20.33;;
39982;SDS011;25670;44.782;10.356;2023-10-08T09:29:34;27.38;;;20.08;;
39982;SDS011;25670;44.782;10.356;2023-10-08T09:32:05;27.08;;;20.80;;
39982;SDS011;25670;44.782;10.356;2023-10-08T09:34:34;29.08;;;20.95;;
39982;SDS011;25670;44.782;10.356;2023-10-08T09:37:01;29.35;;;22.58;;
39982;SDS011;25670;44.782;10.356;2023-10-08T09:39:27;27.92;;;20.17;;
39982;SDS011;25670;44.782;10.356;2023-10-08T09:41:55;26.80;;;18.67;;
39982;SDS011;25670;44.782;10.356;2023-10-08T09:44:22;22.98;;;20.00;;
39982;SDS011;25670;44.782;10.356;2023-10-08T09:46:52;22.27;;;19.70;;
39982;SDS011;25670;44.782;10.356;2023-10-08T09:49:24;25.92;;;20.35;;
39982;SDS011;25670;44.782;10.356;2023-10-08T09:52:02;21.85;;;19.02;;
39982;SDS011;25670;44.782;10.356;2023-10-08T09:54:35;21.38;;;19.08;;
39982;SDS011;25670;44.782;10.356;2023-10-08T09:57:05;25.65;;;19.85;;
39982;SDS011;25670;44.782;10.356;2023-10-08T09:59:32;25.25;;;19.20;;
39982;SDS011;25670;44.782;10.356;2023-10-08T10:02:00;21.15;;;17.50;;
39982;SDS011;25670;44.782;10.356;2023-10-08T10:04:29;22.02;;;16.88;;
39982;SDS011;25670;44.782;10.356;2023-10-08T10:06:57;23.48;;;17.15;;
39982;SDS011;25670;44.782;10.356;2023-10-08T10:09:34;20.45;;;17.00;;
39982;SDS011;25670;44.782;10.356;2023-10-08T10:12:02;20.50;;;16.73;;
39982;SDS011;25670;44.782;10.356;2023-10-08T10:14:41;28.05;;;17.58;;
39982;SDS011;25670;44.782;10.356;2023-10-08T10:17:09;23.25;;;15.57;;
39982;SDS011;25670;44.782;10.356;2023-10-08T10:19:40;19.05;;;14.38;;
39982;SDS011;25670;44.782;10.356;2023-10-08T10:22:12;16.90;;;14.90;;
39982;SDS011;25670;44.782;10.356;2023-10-08T10:24:41;15.85;;;13.80;;
39982;SDS011;25670;44.782;10.356;2023-10-08T10:27:11;15.98;;;14.00;;
39982;SDS011;25670;44.782;10.356;2023-10-08T10:29:40;20.60;;;17.25;;
39982;SDS011;25670;44.782;10.356;2023-10-08T10:32:12;18.70;;;13.82;;
39982;SDS011;25670;44.782;10.356;2023-10-08T10:34:41;18.42;;;14.40;;
39982;SDS011;25670;44.782;10.356;2023-10-08T10:37:09;15.38;;;13.20;;
39982;SDS011;25670;44.782;10.356;2023-10-08T10:39:57;16.17;;;12.93;;
39982;SDS011;25670;44.782;10.356;2023-10-08T10:42:27;13.13;;;11.75;;
39982;SDS011;25670;44.782;10.356;2023-10-08T10:44:56;15.00;;;12.73;;
39982;SDS011;25670;44.782;10.356;2023-10-08T10:47:24;19.05;;;11.98;;
39982;SDS011;25670;44.782;10.356;2023-10-08T10:49:53;19.98;;;11.13;;
39982;SDS011;25670;44.782;10.356;2023-10-08T10:52:40;21.48;;;11.10;;
39982;SDS011;25670;44.782;10.356;2023-10-08T10:55:19;11.98;;;10.77;;
39982;SDS011;25670;44.782;10.356;2023-10-08T10:57:54;23.75;;;11.50;;
39982;SDS011;25670;44.782;10.356;2023-10-08T11:00:22;27.50;;;14.43;;
39982;SDS011;25670;44.782;10.356;2023-10-08T11:02:58;16.33;;;12.80;;
39982;SDS011;25670;44.782;10.356;2023-10-08T11:05:28;16.30;;;14.02;;
39982;SDS011;25670;44.782;10.356;2023-10-08T11:08:03;15.30;;;13.05;;
39982;SDS011;25670;44.782;10.356;2023-10-08T11:10:35;21.20;;;15.30;;
39982;SDS011;25670;44.782;10.356;2023-10-08T11:13:11;20.67;;;14.90;;
39982;SDS011;25670;44.782;10.356;2023-10-08T11:15:47;26.63;;;16.25;;
39982;SDS011;25670;44.782;10.356;2023-10-08T11:18:21;24.40;;;17.52;;
39982;SDS011;25670;44.782;10.356;2023-10-08T11:20:49;19.48;;;16.65;;
39982;SDS011;25670;44.782;10.356;2023-10-08T11:23:33;24.77;;;17.00;;
39982;SDS011;25670;44.782;10.356;2023-10-08T11:26:03;20.05;;;15.35;;
39982;SDS011;25670;44.782;10.356;2023-10-08T11:28:31;24.52;;;15.82;;
39982;SDS011;25670;44.782;10.356;2023-10-08T11:31:00;17.55;;;13.68;;
39982;SDS011;25670;44.782;10.356;2023-10-08T11:33:34;19.23;;;14.05;;
39982;SDS011;25670;44.782;10.356;2023-10-08T11:36:03;15.48;;;12.43;;
39982;SDS011;25670;44.782;10.356;2023-10-08T11:38:39;23.70;;;12.25;;
39982;SDS011;25670;44.782;10.356;2023-10-08T11:41:10;23.15;;;11.50;;
39982;SDS011;25670;44.782;10.356;2023-10-08T11:43:49;21.15;;;11.73;;
39982;SDS011;25670;44.782;10.356;2023-10-08T11:46:29;16.80;;;12.63;;
39982;SDS011;25670;44.782;10.356;2023-10-08T11:49:07;18.10;;;13.05;;
39982;SDS011;25670;44.782;10.356;2023-10-08T11:51:43;16.23;;;11.75;;
39982;SDS011;25670;44.782;10.356;2023-10-08T11:54:13;14.80;;;11.10;;
39982;SDS011;25670;44.782;10.356;2023-10-08T11:56:40;18.15;;;13.02;;
39982;SDS011;25670;44.782;10.356;2023-10-08T11:59:07;13.73;;;12.25;;
39982;SDS011;25670;44.782;10.356;2023-10-08T12:01:37;24.07;;;13.30;;
39982;SDS011;25670;44.782;10.356;2023-10-08T12:04:08;17.65;;;13.32;;
39982;SDS011;25670;44.782;10.356;2023-10-08T12:06:43;24.60;;;13.57;;
39982;SDS011;25670;44.782;10.356;2023-10-08T12:09:13;13.60;;;12.23;;
39982;SDS011;25670;44.782;10.356;2023-10-08T12:11:40;13.63;;;12.20;;
39982;SDS011;25670;44.782;10.356;2023-10-08T12:14:06;12.82;;;11.25;;
39982;SDS011;25670;44.782;10.356;2023-10-08T12:16:32;14.63;;;10.60;;
39982;SDS011;25670;44.782;10.356;2023-10-08T12:19:02;12.25;;;9.48;;
39982;SDS011;25670;44.782;10.356;2023-10-08T12:21:41;11.73;;;10.10;;
39982;SDS011;25670;44.782;10.356;2023-10-08T12:24:07;18.05;;;9.18;;
39982;SDS011;25670;44.782;10.356;2023-10-08T12:26:41;10.68;;;9.77;;
39982;SDS011;25670;44.782;10.356;2023-10-08T12:29:14;16.73;;;9.50;;
39982;SDS011;25670;44.782;10.356;2023-10-08T12:31:42;11.55;;;8.80;;
39982;SDS011;25670;44.782;10.356;2023-10-08T12:34:13;11.65;;;10.05;;
39982;SDS011;25670;44.782;10.356;2023-10-08T12:36:40;19.88;;;11.10;;
39982;SDS011;25670;44.782;10.356;2023-10-08T12:39:08;16.45;;;9.10;;
39982;SDS011;25670;44.782;10.356;2023-10-08T12:41:44;11.10;;;8.50;;
39982;SDS011;25670;44.782;10.356;2023-10-08T12:44:11;12.35;;;9.15;;
39982;SDS011;25670;44.782;10.356;2023-10-08T12:46:38;12.30;;;9.13;;
39982;SDS011;25670;44.782;10.356;2023-10-08T12:49:05;11.18;;;8.48;;
39982;SDS011;25670;44.782;10.356;2023-10-08T12:51:32;19.15;;;9.05;;
39982;SDS011;25670;44.782;10.356;2023-10-08T12:53:59;10.63;;;8.10;;
39982;SDS011;25670;44.782;10.356;2023-10-08T12:56:45;13.00;;;7.90;;
39982;SDS011;25670;44.782;10.356;2023-10-08T12:59:14;15.45;;;8.13;;
39982;SDS011;25670;44.782;10.356;2023-10-08T13:01:47;18.55;;;8.48;;
39982;SDS011;25670;44.782;10.356;2023-10-08T13:04:19;9.27;;;8.27;;
39982;SDS011;25670;44.782;10.356;2023-10-08T13:07:00;10.50;;;7.85;;
39982;SDS011;25670;44.782;10.356;2023-10-08T13:09:28;9.85;;;8.85;;
39982;SDS011;25670;44.782;10.356;2023-10-08T13:12:02;11.25;;;8.38;;
39982;SDS011;25670;44.782;10.356;2023-10-08T13:14:28;13.70;;;8.32;;
39982;SDS011;25670;44.782;10.356;2023-10-08T13:16:55;11.88;;;9.02;;
39982;SDS011;25670;44.782;10.356;2023-10-08T13:19:21;9.75;;;8.18;;
39982;SDS011;25670;44.782;10.356;2023-10-08T13:21:51;11.68;;;8.55;;
39982;SDS011;25670;44.782;10.356;2023-10-08T13:24:18;9.20;;;8.25;;
39982;SDS011;25670;44.782;10.356;2023-10-08T13:26:45;8.85;;;7.95;;
39982;SDS011;25670;44.782;10.356;2023-10-08T13:29:14;16.60;;;8.85;;
39982;SDS011;25670;44.782;10.356;2023-10-08T13:31:40;20.80;;;8.52;;
39982;SDS011;25670;44.782;10.356;2023-10-08T13:34:07;15.68;;;8.85;;
39982;SDS011;25670;44.782;10.356;2023-10-08T13:36:38;15.50;;;7.95;;
39982;SDS011;25670;44.782;10.356;2023-10-08T13:39:05;11.43;;;8.20;;
39982;SDS011;25670;44.782;10.356;2023-10-08T13:41:35;14.65;;;8.15;;
39982;SDS011;25670;44.782;10.356;2023-10-08T13:44:04;10.20;;;7.75;;
39982;SDS011;25670;44.782;10.356;2023-10-08T13:46:31;8.70;;;7.78;;
39982;SDS011;25670;44.782;10.356;2023-10-08T13:49:02;9.32;;;7.93;;
39982;SDS011;25670;44.782;10.356;2023-10-08T13:51:28;20.80;;;8.60;;
39982;SDS011;25670;44.782;10.356;2023-10-08T13:53:57;12.55;;;7.82;;
39982;SDS011;25670;44.782;10.356;2023-10-08T13:56:27;9.93;;;7.47;;
39982;SDS011;25670;44.782;10.356;2023-10-08T13:58:57;10.00;;;7.20;;
39982;SDS011;25670;44.782;10.356;2023-10-08T14:01:37;9.43;;;7.40;;
39982;SDS011;25670;44.782;10.356;2023-10-08T14:04:06;10.90;;;7.60;;
39982;SDS011;25670;44.782;10.356;2023-10-08T14:06:33;15.73;;;7.13;;
39982;SDS011;25670;44.782;10.356;2023-10-08T14:09:04;12.50;;;8.50;;
39982;SDS011;25670;44.782;10.356;2023-10-08T14:11:34;11.20;;;7.93;;
39982;SDS011;25670;44.782;10.356;2023-10-08T14:14:00;9.40;;;8.00;;
39982;SDS011;25670;44.782;10.356;2023-10-08T14:16:36;13.77;;;8.43;;
39982;SDS011;25670;44.782;10.356;2023-10-08T14:19:08;11.30;;;8.00;;
39982;SDS011;25670;44.782;10.356;2023-10-08T14:24:15;13.93;;;7.95;;
39982;SDS011;25670;44.782;10.356;2023-10-08T14:26:42;11.48;;;7.90;;
39982;SDS011;25670;44.782;10.356;2023-10-08T14:29:09;11.82;;;7.88;;
39982;SDS011;25670;44.782;10.356;2023-10-08T14:31:43;9.23;;;7.80;;
39982;SDS011;25670;44.782;10.356;2023-10-08T14:34:14;9.15;;;7.70;;
39982;SDS011;25670;44.782;10.356;2023-10-08T14:36:41;17.98;;;7.57;;
39982;SDS011;25670;44.782;10.356;2023-10-08T14:39:31;9.73;;;7.50;;
39982;SDS011;25670;44.782;10.356;2023-10-08T14:42:16;8.23;;;7.47;;
39982;SDS011;25670;44.782;10.356;2023-10-08T14:45:02;10.13;;;8.25;;
39982;SDS011;25670;44.782;10.356;2023-10-08T14:47:39;13.48;;;8.27;;
39982;SDS011;25670;44.782;10.356;2023-10-08T14:50:07;8.65;;;7.85;;
39982;SDS011;25670;44.782;10.356;2023-10-08T14:52:42;8.30;;;7.50;;
39982;SDS011;25670;44.782;10.356;2023-10-08T14:55:12;9.55;;;6.20;;
39982;SDS011;25670;44.782;10.356;2023-10-08T14:57:38;11.38;;;7.68;;